Time;durP1;ratioP1;P1;durP2;ratioP2;P2;SDS_P1;SDS_P2;PMS_P1;PMS_P2;Temp;Humidity;BMP_temperature;BMP_pressure;BME280_temperature;BME280_humidity;BME280_pressure;Samples;Min_cycle;Max_cycle;Signal;HPM_P1;HPM_P2
2022/04/12 00:00:26;;;;;;;9.85;3.28;;;11.80;99.90;;;;;;5096712;28;20047;-77
2022/04/12 00:02:52;;;;;;;14.35;4.43;;;11.80;99.90;;;;;;5098329;28;20027;-77
2022/04/12 00:05:18;;;;;;;15.73;3.30;;;11.80;99.90;;;;;;5098364;28;20500;-77
2022/04/12 00:07:44;;;;;;;24.38;5.47;;;11.80;99.90;;;;;;5097220;28;20028;-75
2022/04/12 00:10:12;;;;;;;18.13;3.90;;;11.90;99.90;;;;;;5098554;28;20503;-76
2022/04/12 00:12:38;;;;;;;14.45;4.50;;;11.80;99.90;;;;;;5097940;28;20083;-76
2022/04/12 00:15:09;;;;;;;19.35;4.28;;;11.90;99.90;;;;;;5097742;28;20450;-76
2022/04/12 00:20:21;;;;;;;12.32;3.78;;;11.80;99.90;;;;;;5098055;28;20423;-76
2022/04/12 00:22:47;;;;;;;19.90;4.63;;;11.90;99.90;;;;;;5098047;28;20020;-77
2022/04/12 00:25:14;;;;;;;15.10;3.72;;;11.80;99.90;;;;;;5097354;28;20027;-77
2022/04/12 00:27:41;;;;;;;22.20;4.43;;;11.90;99.90;;;;;;5096680;28;20162;-77
2022/04/12 00:30:09;;;;;;;19.02;6.32;;;11.90;99.90;;;;;;5082302;28;20024;-78
2022/04/12 00:32:35;;;;;;;21.73;5.75;;;11.80;99.90;;;;;;5097861;28;20024;-76
2022/04/12 00:35:02;;;;;;;24.65;6.20;;;11.80;99.90;;;;;;5096550;28;20032;-78
2022/04/12 00:37:28;;;;;;;11.80;4.53;;;11.80;99.90;;;;;;5096406;28;20024;-78
2022/04/12 00:39:55;;;;;;;11.18;3.80;;;11.80;99.90;;;;;;5096245;28;20099;-77
2022/04/12 00:42:21;;;;;;;13.77;3.75;;;11.70;99.90;;;;;;5097626;28;20024;-77
2022/04/12 00:44:47;;;;;;;13.55;3.28;;;11.70;99.90;;;;;;5095761;28;20814;-77
2022/04/12 00:47:14;;;;;;;17.30;5.07;;;11.80;99.90;;;;;;5096282;28;20020;-77
2022/04/12 00:49:40;;;;;;;16.58;3.80;;;11.70;99.90;;;;;;5097527;28;20060;-77
2022/04/12 00:52:08;;;;;;;21.08;4.30;;;11.70;99.90;;;;;;5096129;28;20035;-76
2022/04/12 00:54:35;;;;;;;16.45;4.07;;;11.70;99.90;;;;;;5096028;28;20400;-77
2022/04/12 00:57:03;;;;;;;14.35;3.55;;;11.80;99.90;;;;;;5096085;28;20021;-77
2022/04/12 00:59:31;;;;;;;16.17;4.10;;;11.80;99.90;;;;;;5097155;28;20025;-76
2022/04/12 01:01:57;;;;;;;14.35;4.53;;;11.80;99.90;;;;;;5096170;28;20020;-77
2022/04/12 01:04:23;;;;;;;15.23;4.07;;;11.80;99.90;;;;;;5097188;28;20028;-77
2022/04/12 01:06:50;;;;;;;15.68;3.22;;;11.80;99.90;;;;;;5097397;28;20026;-77
2022/04/12 01:09:17;;;;;;;16.45;4.03;;;11.80;99.90;;;;;;5096175;28;20028;-78
2022/04/12 01:11:48;;;;;;;8.73;3.90;;;11.80;99.90;;;;;;5097262;28;20020;-79
2022/04/12 01:14:15;;;;;;;18.48;4.35;;;11.70;99.90;;;;;;5095585;28;20036;-78
2022/04/12 01:16:41;;;;;;;16.33;3.42;;;11.70;99.90;;;;;;5095904;28;20024;-75
2022/04/12 01:19:08;;;;;;;19.65;4.60;;;11.70;99.90;;;;;;5096029;28;20119;-77
2022/04/12 01:21:54;;;;;;;16.50;3.95;;;11.70;99.90;;;;;;5096053;28;20032;-76
2022/04/12 01:24:20;;;;;;;19.35;4.20;;;11.70;99.90;;;;;;5095756;28;20480;-76
2022/04/12 01:26:46;;;;;;;16.45;5.68;;;11.80;99.90;;;;;;5097224;28;20548;-77
2022/04/12 01:29:13;;;;;;;10.73;3.20;;;11.70;99.90;;;;;;5097161;28;20028;-76
2022/04/12 01:31:39;;;;;;;12.27;4.25;;;11.70;99.90;;;;;;5096252;28;20031;-76
2022/04/12 01:34:05;;;;;;;10.43;4.18;;;11.70;99.90;;;;;;5095988;28;20099;-77
2022/04/12 01:36:31;;;;;;;11.68;3.90;;;11.70;99.90;;;;;;5095735;28;20032;-75
2022/04/12 01:38:57;;;;;;;12.23;3.67;;;11.70;99.90;;;;;;5099622;28;20047;-77
2022/04/12 01:41:22;;;;;;;16.00;4.00;;;11.70;99.90;;;;;;5101165;28;20031;-77
2022/04/12 01:43:48;;;;;;;16.63;4.60;;;11.70;99.90;;;;;;5099689;28;20032;-77
2022/04/12 01:46:14;;;;;;;12.73;3.67;;;11.70;99.90;;;;;;5100817;28;20044;-78
2022/04/12 01:48:40;;;;;;;16.67;4.60;;;11.70;99.90;;;;;;5099636;28;20024;-76
2022/04/12 01:51:06;;;;;;;17.52;4.75;;;11.70;99.90;;;;;;5100826;28;20050;-77
2022/04/12 01:53:32;;;;;;;18.92;4.53;;;11.70;99.90;;;;;;5099715;28;20028;-77
2022/04/12 01:55:58;;;;;;;14.95;3.97;;;11.70;99.90;;;;;;5100727;28;20024;-77
2022/04/12 01:58:24;;;;;;;17.98;4.57;;;11.80;99.90;;;;;;5100705;28;20012;-76
2022/04/12 02:00:50;;;;;;;14.93;3.80;;;11.80;99.90;;;;;;5100427;28;20024;-77
2022/04/12 02:03:15;;;;;;;23.38;4.00;;;11.70;99.90;;;;;;5100667;28;20027;-76
2022/04/12 02:05:41;;;;;;;17.92;4.35;;;11.70;99.90;;;;;;5100738;28;20028;-77
2022/04/12 02:08:08;;;;;;;17.15;5.07;;;11.80;99.90;;;;;;5100488;28;20028;-77
2022/04/12 02:10:34;;;;;;;18.05;4.65;;;11.80;99.90;;;;;;5099279;28;20032;-76
2022/04/12 02:13:00;;;;;;;15.43;3.88;;;11.80;99.90;;;;;;5099146;28;20031;-78
2022/04/12 02:15:26;;;;;;;11.50;3.97;;;11.80;99.90;;;;;;5100386;28;20464;-77
2022/04/12 02:17:52;;;;;;;15.85;4.97;;;11.80;99.90;;;;;;5099024;28;20012;-77
2022/04/12 02:20:18;;;;;;;22.67;4.35;;;11.80;99.90;;;;;;5098762;28;20030;-77
2022/04/12 02:22:44;;;;;;;8.70;3.40;;;11.80;99.90;;;;;;5099045;28;20020;-76
2022/04/12 02:25:10;;;;;;;16.65;4.13;;;11.80;99.90;;;;;;5100294;28;20102;-76
2022/04/12 02:27:37;;;;;;;24.42;5.22;;;11.80;99.90;;;;;;5100004;28;20020;-77
2022/04/12 02:30:05;;;;;;;19.95;4.35;;;11.80;99.90;;;;;;5085053;28;20560;-77
2022/04/12 02:32:32;;;;;;;21.48;5.18;;;11.70;99.90;;;;;;5100138;28;20024;-78
2022/04/12 02:35:00;;;;;;;17.85;4.93;;;11.70;99.90;;;;;;5098528;28;20031;-77
2022/04/12 02:37:29;;;;;;;24.40;4.00;;;11.70;99.90;;;;;;5099204;28;20103;-76
2022/04/12 02:39:55;;;;;;;12.75;4.30;;;11.70;99.90;;;;;;5098719;28;20028;-77
2022/04/12 02:42:21;;;;;;;17.38;4.55;;;11.70;99.90;;;;;;5098726;28;20020;-77
2022/04/12 02:44:47;;;;;;;19.20;4.93;;;11.70;99.90;;;;;;5099698;28;20392;-77
2022/04/12 02:47:13;;;;;;;19.20;5.35;;;11.70;99.90;;;;;;5100190;28;20028;-76
2022/04/12 02:49:40;;;;;;;16.20;5.10;;;11.70;99.90;;;;;;5097754;28;20048;-77
2022/04/12 02:52:08;;;;;;;17.27;5.43;;;11.70;99.90;;;;;;5099105;28;20029;-77
2022/04/12 02:54:34;;;;;;;13.93;4.20;;;11.70;99.90;;;;;;5098999;28;20100;-78
2022/04/12 02:57:01;;;;;;;20.65;4.20;;;11.70;99.90;;;;;;5098712;28;20050;-77
2022/04/12 02:59:27;;;;;;;22.40;4.78;;;11.70;99.90;;;;;;5098349;28;20488;-77
2022/04/12 03:01:53;;;;;;;22.10;4.95;;;11.70;99.90;;;;;;5098553;28;20043;-77
2022/04/12 03:04:18;;;;;;;16.90;4.50;;;11.70;99.90;;;;;;5099366;28;20028;-76
2022/04/12 03:06:44;;;;;;;13.20;4.35;;;11.70;99.90;;;;;;5098211;28;20024;-77
2022/04/12 03:09:11;;;;;;;18.88;4.85;;;11.70;99.90;;;;;;5099231;28;20103;-77
2022/04/12 03:11:38;;;;;;;26.67;8.60;;;11.70;99.90;;;;;;5098157;28;20020;-75
2022/04/12 03:14:04;;;;;;;15.77;3.13;;;11.60;99.90;;;;;;5098209;28;20024;-78
2022/04/12 03:16:30;;;;;;;21.42;4.25;;;11.70;99.90;;;;;;5098358;28;20112;-77
2022/04/12 03:18:56;;;;;;;14.00;4.28;;;11.70;99.90;;;;;;5098016;28;20436;-77
2022/04/12 03:21:22;;;;;;;24.02;5.25;;;11.70;99.90;;;;;;5098118;28;20020;-76
2022/04/12 03:23:48;;;;;;;24.48;5.55;;;11.60;99.90;;;;;;5098143;28;20028;-77
2022/04/12 03:26:14;;;;;;;19.80;3.97;;;11.60;99.90;;;;;;5098259;28;20026;-76
2022/04/12 03:28:39;;;;;;;10.88;3.47;;;11.70;99.90;;;;;;5095118;28;20028;-75
2022/04/12 03:31:05;;;;;;;10.40;3.88;;;11.70;99.90;;;;;;5086635;28;20111;-77
2022/04/12 03:33:31;;;;;;;17.60;3.92;;;11.70;99.90;;;;;;5099059;28;20094;-76
2022/04/12 03:35:57;;;;;;;14.98;5.10;;;11.70;99.90;;;;;;5098939;28;20024;-77
2022/04/12 03:38:23;;;;;;;19.73;5.03;;;11.70;99.90;;;;;;5098937;28;20024;-77
2022/04/12 03:40:49;;;;;;;15.68;5.25;;;11.60;99.90;;;;;;5097814;28;20027;-76
2022/04/12 03:43:15;;;;;;;9.80;3.42;;;11.60;99.90;;;;;;5097195;28;20024;-76
2022/04/12 03:45:41;;;;;;;15.45;4.38;;;11.60;99.90;;;;;;5098360;28;20072;-75
2022/04/12 03:48:07;;;;;;;21.70;4.95;;;11.70;99.90;;;;;;5098710;28;20036;-76
2022/04/12 03:50:36;;;;;;;9.30;3.75;;;11.60;99.90;;;;;;5097175;28;20020;-75
2022/04/12 03:53:02;;;;;;;10.95;3.80;;;11.60;99.90;;;;;;5098391;28;20058;-76
2022/04/12 03:55:31;;;;;;;27.20;5.20;;;11.60;99.90;;;;;;5097450;28;20045;-76
2022/04/12 03:58:08;;;;;;;17.45;4.10;;;11.70;99.90;;;;;;5098292;28;20024;-77
2022/04/12 04:00:35;;;;;;;16.70;4.85;;;11.60;99.90;;;;;;5097089;28;20023;-76
2022/04/12 04:03:01;;;;;;;16.10;4.72;;;11.60;99.90;;;;;;5097076;28;20020;-77
2022/04/12 04:05:27;;;;;;;12.15;4.10;;;11.60;99.90;;;;;;5097251;28;20484;-75
2022/04/12 04:07:54;;;;;;;15.23;4.85;;;11.70;99.90;;;;;;5096913;28;20032;-76
2022/04/12 04:10:20;;;;;;;22.13;5.30;;;11.70;99.90;;;;;;5097049;28;20020;-78
2022/04/12 04:12:47;;;;;;;21.73;5.05;;;11.70;99.90;;;;;;5096975;28;20117;-77
2022/04/12 04:15:14;;;;;;;17.27;4.43;;;11.70;99.90;;;;;;5097701;28;20023;-76
2022/04/12 04:17:46;;;;;;;20.02;4.90;;;11.70;99.90;;;;;;5098023;28;20024;-75
2022/04/12 04:20:15;;;;;;;19.30;4.32;;;11.70;99.90;;;;;;5096670;28;20496;-77
2022/04/12 04:22:41;;;;;;;13.20;3.55;;;11.70;99.90;;;;;;5097947;28;20024;-76
2022/04/12 04:25:12;;;;;;;17.50;4.22;;;11.70;99.90;;;;;;5096516;28;20392;-75
2022/04/12 04:27:39;;;;;;;20.27;6.50;;;11.70;99.90;;;;;;5096944;28;20028;-76
2022/04/12 04:30:07;;;;;;;10.57;3.78;;;11.70;99.90;;;;;;5082743;28;20024;-76
2022/04/12 04:32:34;;;;;;;23.63;5.03;;;11.80;99.90;;;;;;5097819;28;20107;-76
2022/04/12 04:35:00;;;;;;;22.85;5.03;;;11.80;99.90;;;;;;5097578;28;20013;-77
2022/04/12 04:37:26;;;;;;;16.35;4.78;;;11.80;99.90;;;;;;5096718;28;20067;-76
2022/04/12 04:39:53;;;;;;;13.80;4.78;;;11.80;99.90;;;;;;5096486;28;20099;-76
2022/04/12 04:42:20;;;;;;;18.02;4.38;;;11.80;99.90;;;;;;5097457;28;20024;-77
2022/04/12 04:44:47;;;;;;;16.25;4.95;;;11.80;99.90;;;;;;5095904;28;20051;-76
2022/04/12 04:47:13;;;;;;;11.32;4.55;;;11.80;99.90;;;;;;5096411;28;20400;-75
2022/04/12 04:49:39;;;;;;;12.98;4.85;;;11.80;99.90;;;;;;5096389;28;20020;-76
2022/04/12 04:52:06;;;;;;;17.55;4.32;;;11.80;99.90;;;;;;5097466;28;20028;-76
2022/04/12 04:54:32;;;;;;;18.02;5.07;;;11.80;99.90;;;;;;5096024;28;20031;-76
2022/04/12 04:56:58;;;;;;;13.00;3.15;;;11.80;99.90;;;;;;5096273;28;20069;-76
2022/04/12 04:59:23;;;;;;;18.48;4.05;;;11.80;99.90;;;;;;5095131;28;20421;-76
2022/04/12 05:01:49;;;;;;;13.38;3.53;;;11.80;99.90;;;;;;5097492;28;20021;-77
2022/04/12 05:04:15;;;;;;;21.08;5.15;;;11.70;99.90;;;;;;5097126;28;20024;-77
2022/04/12 05:06:41;;;;;;;17.10;4.32;;;11.70;99.90;;;;;;5097437;28;20085;-75
2022/04/12 05:09:07;;;;;;;11.40;5.10;;;11.70;99.90;;;;;;5095810;28;20016;-77
2022/04/12 05:11:33;;;;;;;25.05;4.68;;;11.70;99.90;;;;;;5095701;28;20032;-77
2022/04/12 05:13:58;;;;;;;14.95;4.30;;;11.60;99.90;;;;;;5097093;28;20075;-76
2022/04/12 05:16:24;;;;;;;15.80;4.45;;;11.60;99.90;;;;;;5097317;28;20060;-76
2022/04/12 05:18:51;;;;;;;15.63;4.97;;;11.60;99.90;;;;;;5097196;28;20024;-76
2022/04/12 05:21:18;;;;;;;13.32;4.18;;;11.60;99.90;;;;;;5095883;28;20509;-75
2022/04/12 05:23:44;;;;;;;17.10;4.65;;;11.60;99.90;;;;;;5097188;28;20016;-76
2022/04/12 05:26:10;;;;;;;18.35;3.63;;;11.60;99.90;;;;;;5097566;28;20442;-77
2022/04/12 05:28:36;;;;;;;14.02;4.38;;;11.70;99.90;;;;;;5096673;28;20111;-78
2022/04/12 05:31:03;;;;;;;18.13;5.82;;;11.60;99.90;;;;;;5090813;28;20115;-77
2022/04/12 05:33:29;;;;;;;16.25;4.20;;;11.60;99.90;;;;;;5094629;28;20516;-77
2022/04/12 05:35:55;;;;;;;17.48;4.68;;;11.60;99.90;;;;;;5096341;28;20077;-78
2022/04/12 05:38:20;;;;;;;29.17;5.28;;;11.60;99.90;;;;;;5095746;28;20020;-77
2022/04/12 05:40:46;;;;;;;14.13;3.97;;;11.60;99.90;;;;;;5097069;28;20084;-77
2022/04/12 05:43:12;;;;;;;26.67;5.45;;;11.60;99.90;;;;;;5096612;28;20024;-80
2022/04/12 05:45:38;;;;;;;17.73;3.53;;;11.70;99.90;;;;;;5096919;28;20055;-79
2022/04/12 05:48:04;;;;;;;14.13;4.07;;;11.70;99.90;;;;;;5095982;28;20027;-78
2022/04/12 05:50:30;;;;;;;23.42;5.47;;;11.70;99.90;;;;;;5096808;28;20442;-78
2022/04/12 05:52:57;;;;;;;13.25;4.30;;;11.70;99.90;;;;;;5095644;28;20027;-78
2022/04/12 05:55:26;;;;;;;17.77;4.18;;;11.70;99.90;;;;;;5096998;28;20491;-80
2022/04/12 05:57:59;;;;;;;17.80;4.47;;;11.70;99.90;;;;;;5083291;28;20052;-80
2022/04/12 06:00:33;;;;;;;16.77;4.53;;;11.70;99.90;;;;;;5094359;28;20047;-79
2022/04/12 06:02:59;;;;;;;21.92;4.13;;;11.70;99.90;;;;;;5080454;28;20023;-79
2022/04/12 06:05:28;;;;;;;14.00;4.20;;;11.70;99.90;;;;;;5076310;28;20112;-79
2022/04/12 06:07:54;;;;;;;10.25;3.63;;;11.70;99.90;;;;;;5093386;28;20109;-78
2022/04/12 06:10:21;;;;;;;20.75;5.05;;;11.70;99.90;;;;;;5093945;28;20028;-79
2022/04/12 06:12:49;;;;;;;22.73;5.65;;;11.80;99.90;;;;;;5094566;28;20073;-80
2022/04/12 06:15:16;;;;;;;22.05;5.10;;;11.80;99.90;;;;;;5095731;28;20032;-78
2022/04/12 06:17:42;;;;;;;11.07;4.47;;;11.80;99.90;;;;;;5094849;28;20017;-79
2022/04/12 06:20:10;;;;;;;23.40;4.28;;;11.80;99.90;;;;;;5091850;28;20027;-80
2022/04/12 06:22:38;;;;;;;14.10;4.15;;;11.80;99.90;;;;;;5082542;28;20126;-79
2022/04/12 06:25:05;;;;;;;21.52;5.43;;;11.80;99.90;;;;;;5099057;28;20055;-79
2022/04/12 06:27:38;;;;;;;25.48;5.43;;;11.80;99.90;;;;;;5100193;28;20024;-78
2022/04/12 06:30:13;;;;;;;15.85;4.25;;;11.90;99.90;;;;;;5089158;28;20468;-78
2022/04/12 06:32:40;;;;;;;14.90;4.70;;;11.90;99.90;;;;;;5090772;28;20017;-80
2022/04/12 06:35:09;;;;;;;15.35;5.03;;;11.90;99.90;;;;;;5088540;28;20034;-77
2022/04/12 06:37:35;;;;;;;12.65;4.63;;;12.00;99.90;;;;;;5098514;28;20023;-78
2022/04/12 06:40:02;;;;;;;11.80;4.18;;;12.00;99.90;;;;;;5098268;28;20020;-78
2022/04/12 06:42:29;;;;;;;23.38;4.40;;;12.00;99.90;;;;;;5086058;28;20024;-77
2022/04/12 06:44:55;;;;;;;15.35;3.88;;;12.10;99.90;;;;;;5083331;28;20029;-78
2022/04/12 06:47:21;;;;;;;16.25;4.78;;;12.10;99.90;;;;;;5097362;28;20030;-78
2022/04/12 06:49:48;;;;;;;14.38;3.83;;;12.20;99.90;;;;;;5097421;28;20032;-77
2022/04/12 06:52:16;;;;;;;19.92;4.50;;;12.20;99.90;;;;;;5096644;28;20455;-81
2022/04/12 06:54:42;;;;;;;18.02;4.35;;;12.20;99.90;;;;;;5099393;28;20507;-77
2022/04/12 06:57:08;;;;;;;19.23;5.38;;;12.30;99.90;;;;;;5099475;28;20024;-78
2022/04/12 06:59:35;;;;;;;21.27;4.38;;;12.30;99.90;;;;;;5097372;28;20176;-77
2022/04/12 07:02:01;;;;;;;15.13;3.90;;;12.30;99.90;;;;;;5092462;28;20054;-78
2022/04/12 07:04:28;;;;;;;15.07;3.97;;;12.40;99.90;;;;;;5099037;28;20488;-77
2022/04/12 07:06:56;;;;;;;11.27;4.38;;;12.40;99.90;;;;;;5099548;28;20027;-76
2022/04/12 07:09:23;;;;;;;16.85;3.70;;;12.50;99.90;;;;;;5097865;28;20394;-77
2022/04/12 07:11:50;;;;;;;15.57;3.90;;;12.50;99.90;;;;;;5099317;28;20035;-75
2022/04/12 07:14:15;;;;;;;17.38;3.40;;;12.50;99.90;;;;;;5097607;28;20089;-77
2022/04/12 07:16:41;;;;;;;13.93;3.45;;;12.60;99.90;;;;;;5097955;28;20028;-78
2022/04/12 07:19:07;;;;;;;13.45;2.92;;;12.60;99.90;;;;;;5099403;28;20055;-78
2022/04/12 07:21:34;;;;;;;13.48;4.13;;;12.60;99.90;;;;;;5088794;28;20029;-78
2022/04/12 07:24:00;;;;;;;10.57;4.57;;;12.60;99.90;;;;;;5093691;28;20028;-79
2022/04/12 07:26:27;;;;;;;11.13;3.47;;;12.70;99.90;;;;;;5097027;28;20062;-78
2022/04/12 07:28:53;;;;;;;19.88;4.22;;;12.70;99.90;;;;;;5094369;28;20039;-77
2022/04/12 07:31:18;;;;;;;27.23;5.28;;;12.70;99.90;;;;;;5097720;28;20028;-77
2022/04/12 07:33:44;;;;;;;15.32;3.75;;;12.80;99.90;;;;;;5098893;28;20034;-76
2022/04/12 07:36:10;;;;;;;15.18;4.70;;;12.90;99.90;;;;;;5097995;28;20087;-78
2022/04/12 07:38:36;;;;;;;11.30;3.58;;;12.90;99.90;;;;;;5097423;28;20028;-78
2022/04/12 07:41:02;;;;;;;12.40;3.10;;;13.00;99.90;;;;;;5097499;28;20024;-76
2022/04/12 07:43:28;;;;;;;11.68;3.42;;;13.00;99.90;;;;;;5096979;28;20050;-78
2022/04/12 07:45:54;;;;;;;10.27;3.53;;;13.10;99.90;;;;;;5098620;28;20516;-78
2022/04/12 07:48:19;;;;;;;18.02;4.30;;;13.10;99.90;;;;;;5098763;28;20024;-78
2022/04/12 07:50:45;;;;;;;19.90;4.05;;;13.10;99.90;;;;;;5099045;28;20023;-77
2022/04/12 07:53:11;;;;;;;21.80;4.53;;;13.10;99.90;;;;;;5098901;28;20028;-78
2022/04/12 07:55:37;;;;;;;15.57;4.07;;;13.20;99.90;;;;;;5098564;28;20024;-77
2022/04/12 07:58:03;;;;;;;17.25;3.88;;;13.20;99.90;;;;;;5098373;28;20063;-76
2022/04/12 08:00:29;;;;;;;17.73;4.03;;;13.20;99.90;;;;;;5097072;28;20020;-77
2022/04/12 08:02:55;;;;;;;16.90;5.07;;;13.30;99.90;;;;;;5096755;28;20028;-77
2022/04/12 08:05:20;;;;;;;15.35;3.58;;;13.40;99.90;;;;;;5096957;28;20024;-76
2022/04/12 08:07:49;;;;;;;12.45;4.32;;;13.40;99.90;;;;;;5098360;28;20031;-77
2022/04/12 08:10:16;;;;;;;21.88;4.00;;;13.40;99.90;;;;;;5098238;28;20095;-76
2022/04/12 08:12:43;;;;;;;21.10;4.22;;;13.50;99.90;;;;;;5096825;28;20103;-78
2022/04/12 08:15:10;;;;;;;11.30;3.92;;;13.60;99.90;;;;;;5096673;28;20042;-78
2022/04/12 08:17:36;;;;;;;10.18;3.60;;;13.70;99.90;;;;;;5096509;28;20027;-77
2022/04/12 08:20:02;;;;;;;9.95;2.55;;;13.80;99.90;;;;;;5098277;28;20020;-77
2022/04/12 08:22:28;;;;;;;15.38;3.88;;;13.80;99.90;;;;;;5097778;28;20484;-78
2022/04/12 08:24:54;;;;;;;12.60;4.38;;;13.80;99.90;;;;;;5097983;28;20091;-77
2022/04/12 08:27:20;;;;;;;15.15;3.65;;;14.00;99.90;;;;;;5086153;28;20051;-78
2022/04/12 08:29:46;;;;;;;16.80;3.65;;;14.00;99.90;;;;;;5096325;28;20039;-79
2022/04/12 08:32:12;;;;;;;13.35;3.42;;;14.10;99.90;;;;;;5096803;28;20571;-76
2022/04/12 08:34:38;;;;;;;21.40;3.55;;;14.10;99.90;;;;;;5097825;28;20047;-78
2022/04/12 08:37:05;;;;;;;17.40;4.15;;;14.10;99.90;;;;;;5098984;28;20369;-78
2022/04/12 08:39:31;;;;;;;9.13;2.65;;;14.10;99.90;;;;;;5091885;28;20042;-76
2022/04/12 08:42:00;;;;;;;24.23;3.72;;;14.10;99.90;;;;;;5097390;28;20046;-78
2022/04/12 08:44:26;;;;;;;13.95;3.47;;;14.20;99.90;;;;;;5098555;28;20023;-78
2022/04/12 08:46:56;;;;;;;13.30;3.58;;;14.30;99.90;;;;;;5096400;28;20048;-77
2022/04/12 08:49:23;;;;;;;6.10;2.80;;;14.40;99.90;;;;;;5091490;28;20119;-80
2022/04/12 08:51:50;;;;;;;19.88;5.00;;;14.40;99.90;;;;;;5097609;28;20081;-78
2022/04/12 08:54:20;;;;;;;18.98;3.35;;;14.50;99.90;;;;;;5098557;28;20492;-80
2022/04/12 08:56:51;;;;;;;9.40;2.83;;;14.50;99.90;;;;;;5084571;28;20039;-76
2022/04/12 08:59:18;;;;;;;12.13;3.42;;;14.50;99.90;;;;;;5097436;28;20019;-78
2022/04/12 09:01:46;;;;;;;17.23;3.95;;;14.50;99.90;;;;;;5097974;28;20016;-80
2022/04/12 09:04:12;;;;;;;14.80;5.00;;;14.70;99.90;;;;;;5098099;28;20055;-80
2022/04/12 09:06:49;;;;;;;21.17;4.43;;;14.80;99.90;;;;;;5098260;28;20016;-78
2022/04/12 09:09:18;;;;;;;11.60;3.83;;;15.00;99.90;;;;;;5097173;28;20109;-77
2022/04/12 09:12:02;;;;;;;9.93;3.90;;;15.10;99.90;;;;;;5097251;28;20503;-78
2022/04/12 09:14:39;;;;;;;19.27;3.72;;;15.00;99.90;;;;;;5095845;28;20024;-79
2022/04/12 09:17:11;;;;;;;13.90;3.92;;;15.10;99.90;;;;;;5092192;28;20055;-79
2022/04/12 09:19:47;;;;;;;17.98;4.15;;;15.10;99.90;;;;;;5096283;28;20073;-79
2022/04/12 09:22:18;;;;;;;12.52;3.80;;;15.10;99.90;;;;;;5093613;28;20024;-77
2022/04/12 09:24:54;;;;;;;16.45;5.10;;;15.10;99.90;;;;;;5087211;28;20052;-79
2022/04/12 09:27:23;;;;;;;13.80;3.78;;;15.10;99.90;;;;;;5097005;28;20031;-78
2022/04/12 09:29:53;;;;;;;21.15;3.90;;;15.30;99.90;;;;;;5086011;28;20033;-78
2022/04/12 09:32:26;;;;;;;9.55;3.53;;;15.30;99.90;;;;;;5096591;28;20434;-79
2022/04/12 09:34:53;;;;;;;12.35;3.53;;;15.30;99.90;;;;;;5097538;28;20024;-80
2022/04/12 09:37:32;;;;;;;18.10;4.03;;;15.30;99.90;;;;;;5097174;28;20020;-78
2022/04/12 09:40:02;;;;;;;22.23;5.10;;;15.50;99.90;;;;;;5094561;28;20024;-79
2022/04/12 09:42:48;;;;;;;15.85;3.33;;;15.60;99.90;;;;;;5097004;28;20382;-79
2022/04/12 09:45:22;;;;;;;14.15;3.40;;;15.60;99.90;;;;;;5097278;28;20036;-78
2022/04/12 09:47:50;;;;;;;17.35;3.50;;;15.60;99.90;;;;;;5096290;28;20036;-79
2022/04/12 09:50:20;;;;;;;14.80;3.08;;;15.50;99.90;;;;;;5096049;28;20442;-78
2022/04/12 09:53:02;;;;;;;12.50;3.47;;;15.50;99.90;;;;;;5095890;28;20048;-80
2022/04/12 09:55:45;;;;;;;16.35;4.13;;;15.60;99.90;;;;;;5097051;28;20035;-80
2022/04/12 09:58:21;;;;;;;17.08;4.93;;;15.60;99.90;;;;;;5097471;28;20028;-78
2022/04/12 10:00:47;;;;;;;24.50;5.13;;;15.80;99.90;;;;;;5099640;28;20024;-77
2022/04/12 10:03:20;;;;;;;18.80;4.25;;;16.00;99.90;;;;;;5099617;28;20396;-78
2022/04/12 10:05:46;;;;;;;10.93;2.50;;;16.20;99.90;;;;;;5100951;28;20024;-77
2022/04/12 10:08:16;;;;;;;6.93;2.60;;;16.10;99.90;;;;;;5100539;28;20028;-81
2022/04/12 10:10:43;;;;;;;15.53;4.17;;;16.00;99.90;;;;;;5100396;28;20032;-80
2022/04/12 10:13:10;;;;;;;17.23;3.83;;;16.00;99.90;;;;;;5098074;28;20025;-80
2022/04/12 10:15:38;;;;;;;17.60;4.45;;;16.00;99.90;;;;;;5100100;28;20026;-83
2022/04/12 10:18:04;;;;;;;12.32;2.90;;;16.20;99.90;;;;;;5100616;28;20022;-80
2022/04/12 10:20:30;;;;;;;14.27;3.47;;;16.30;99.90;;;;;;5099139;28;20043;-81
2022/04/12 10:22:58;;;;;;;12.38;3.95;;;16.30;99.90;;;;;;5100486;28;20107;-81
2022/04/12 10:25:26;;;;;;;24.83;4.82;;;16.20;99.90;;;;;;5098431;28;20121;-79
2022/04/12 10:27:57;;;;;;;14.05;3.40;;;16.20;99.90;;;;;;5090123;28;20030;-79
2022/04/12 10:30:26;;;;;;;15.25;3.65;;;16.30;99.90;;;;;;5085806;28;20016;-80
2022/04/12 10:33:01;;;;;;;26.52;4.80;;;16.40;99.90;;;;;;5098603;28;20031;-79
2022/04/12 10:35:55;;;;;;;8.13;2.92;;;16.40;99.90;;;;;;5099882;28;20092;-82
2022/04/12 10:38:23;;;;;;;16.35;3.70;;;16.20;99.90;;;;;;5094420;28;20048;-79
2022/04/12 10:40:51;;;;;;;16.13;3.25;;;16.20;99.90;;;;;;5100124;28;20380;-80
2022/04/12 10:43:43;;;;;;;15.10;3.47;;;16.20;99.90;;;;;;5098253;28;20381;-80
2022/04/12 10:46:12;;;;;;;17.92;3.95;;;16.40;99.90;;;;;;5097272;28;20135;-80
2022/04/12 10:48:38;;;;;;;16.08;3.90;;;16.50;99.90;;;;;;5099772;28;20504;-80
2022/04/12 10:51:06;;;;;;;7.78;3.50;;;16.60;99.90;;;;;;5098812;28;20024;-81
2022/04/12 10:53:38;;;;;;;17.13;4.07;;;16.60;99.90;;;;;;5099901;28;20069;-81
2022/04/12 10:56:12;;;;;;;17.33;4.75;;;16.40;99.90;;;;;;5095509;28;20082;-80
2022/04/12 10:58:39;;;;;;;15.07;5.30;;;16.50;99.90;;;;;;5099304;28;20533;-80
2022/04/12 11:01:09;;;;;;;16.65;4.32;;;16.60;99.90;;;;;;5099328;28;20042;-80
2022/04/12 11:03:41;;;;;;;15.80;4.07;;;16.70;99.90;;;;;;5098511;28;20020;-79
2022/04/12 11:06:34;;;;;;;19.38;3.95;;;16.80;99.90;;;;;;5099467;28;20035;-79
2022/04/12 11:09:11;;;;;;;18.67;5.20;;;17.00;99.90;;;;;;5099196;28;20036;-80
2022/04/12 11:11:42;;;;;;;20.00;3.72;;;17.10;99.90;;;;;;5097543;28;20032;-79
2022/04/12 11:14:33;;;;;;;15.57;3.75;;;17.20;99.90;;;;;;5098923;28;20468;-80
2022/04/12 11:17:07;;;;;;;11.63;3.33;;;17.30;99.90;;;;;;5099190;28;20028;-78
2022/04/12 11:19:47;;;;;;;18.00;3.95;;;17.30;99.90;;;;;;5097959;28;20111;-79
2022/04/12 11:22:18;;;;;;;12.67;3.73;;;17.40;99.90;;;;;;5096097;28;20477;-78
2022/04/12 11:25:03;;;;;;;;;;;17.40;99.90;;;;;;5099767;28;20286;-79
2022/04/12 11:27:29;;;;;;;15.98;4.07;;;17.20;99.90;;;;;;5098868;28;19904;-78
2022/04/12 11:29:58;;;;;;;13.43;4.18;;;17.20;99.90;;;;;;5086099;28;20036;-78
2022/04/12 11:32:25;;;;;;;17.48;3.28;;;17.10;99.90;;;;;;5098709;28;20024;-80
2022/04/12 11:34:52;;;;;;;18.48;3.42;;;17.20;99.90;;;;;;5097944;28;20047;-79
2022/04/12 11:37:18;;;;;;;16.40;3.15;;;17.40;99.90;;;;;;5091588;28;20035;-79
2022/04/12 11:39:44;;;;;;;10.60;3.28;;;17.60;99.90;;;;;;5097780;28;20020;-78
2022/04/12 11:42:15;;;;;;;22.48;3.75;;;17.70;99.90;;;;;;5098051;28;20114;-80
2022/04/12 11:44:53;;;;;;;17.00;3.58;;;17.80;99.90;;;;;;5099006;28;20389;-80
2022/04/12 11:47:19;;;;;;;13.35;3.53;;;18.10;99.90;;;;;;5097816;28;20036;-80
2022/04/12 11:49:45;;;;;;;21.08;3.72;;;18.10;99.90;;;;;;5098615;28;20028;-79
2022/04/12 11:52:15;;;;;;;15.48;4.38;;;18.10;99.90;;;;;;5098800;28;20028;-78
2022/04/12 11:54:46;;;;;;;18.92;4.38;;;18.10;99.90;;;;;;5098710;28;20059;-79
2022/04/12 11:57:20;;;;;;;19.77;3.63;;;18.20;99.90;;;;;;5097086;28;20020;-81
2022/04/12 11:59:49;;;;;;;14.85;4.40;;;18.10;99.90;;;;;;5098394;28;20030;-83
2022/04/12 12:02:17;;;;;;;17.20;4.25;;;17.80;99.90;;;;;;5097078;28;20039;-78
2022/04/12 12:04:50;;;;;;;14.13;4.15;;;17.80;99.90;;;;;;5097083;28;20089;-79
2022/04/12 12:07:17;;;;;;;16.75;4.85;;;18.00;99.90;;;;;;5098230;28;20020;-77
2022/04/12 12:10:04;;;;;;;17.55;3.95;;;17.90;99.90;;;;;;5098067;28;20396;-78
2022/04/12 12:12:37;;;;;;;21.48;4.28;;;18.00;99.90;;;;;;5098078;28;20030;-79
2022/04/12 12:15:23;;;;;;;17.42;3.67;;;18.10;99.90;;;;;;5095328;28;20059;-77
2022/04/12 12:17:50;;;;;;;15.07;3.63;;;17.80;99.90;;;;;;5096540;28;20035;-78
2022/04/12 12:20:17;;;;;;;18.70;3.95;;;17.80;99.90;;;;;;5096361;28;20518;-78
2022/04/12 12:22:46;;;;;;;18.15;5.13;;;17.80;99.90;;;;;;5083347;28;20056;-78
2022/04/12 12:25:18;;;;;;;14.77;3.42;;;17.80;99.90;;;;;;5097976;28;20016;-78
2022/04/12 12:27:54;;;;;;;14.50;5.10;;;17.80;99.90;;;;;;5096580;28;20028;-77
2022/04/12 12:30:27;;;;;;;18.30;4.68;;;17.70;99.90;;;;;;5093009;28;20095;-78
2022/04/12 12:32:56;;;;;;;15.27;3.72;;;17.50;99.90;;;;;;5086243;28;20459;-77
2022/04/12 12:35:28;;;;;;;12.05;4.80;;;17.40;99.90;;;;;;5095030;28;20016;-78
2022/04/12 12:38:11;;;;;;;14.13;4.03;;;17.20;99.90;;;;;;5095707;28;20024;-77
2022/04/12 12:40:38;;;;;;;14.57;3.85;;;17.30;99.90;;;;;;5097785;28;20111;-76
2022/04/12 12:43:05;;;;;;;21.38;4.90;;;17.60;99.90;;;;;;5095605;28;20024;-77
2022/04/12 12:45:35;;;;;;;15.75;4.45;;;18.00;99.90;;;;;;5097726;28;20538;-78